Time;durP1;ratioP1;P1;durP2;ratioP2;P2;SDS_P1;SDS_P2;PMS_P1;PMS_P2;Temp;Humidity;BMP_temperature;BMP_pressure;BME280_temperature;BME280_humidity;BME280_pressure;Samples;Min_cycle;Max_cycle;Signal;HPM_P1;HPM_P2
2021/12/26 00:01:41;;;;;;;14.18;13.13;;;-6.20;99.90;;;;;;4962886;28;20047;-82
2021/12/26 00:04:13;;;;;;;13.52;12.82;;;-6.10;99.90;;;;;;4962141;28;20098;-82
2021/12/26 00:06:41;;;;;;;13.65;12.95;;;-6.10;99.90;;;;;;4972219;28;20038;-82
2021/12/26 00:09:08;;;;;;;13.05;12.35;;;-6.00;99.90;;;;;;4967175;28;20078;-82
2021/12/26 00:11:35;;;;;;;13.02;12.40;;;-6.00;99.90;;;;;;4950797;28;20078;-81
2021/12/26 00:14:02;;;;;;;13.35;12.52;;;-6.00;99.90;;;;;;4948831;28;20075;-81
2021/12/26 00:16:29;;;;;;;13.32;12.55;;;-6.00;99.90;;;;;;4951092;28;20110;-81
2021/12/26 00:18:58;;;;;;;13.15;12.30;;;-6.10;99.90;;;;;;4960533;28;20452;-82
2021/12/26 00:21:24;;;;;;;13.38;12.68;;;-6.10;99.90;;;;;;4954910;28;20051;-82
2021/12/26 00:23:53;;;;;;;12.50;11.77;;;-6.10;99.90;;;;;;4952460;28;20051;-81
2021/12/26 00:26:20;;;;;;;12.05;11.55;;;-6.10;99.90;;;;;;4984021;28;20051;-81
2021/12/26 00:28:46;;;;;;;13.00;12.20;;;-6.10;99.90;;;;;;4952323;28;20168;-82
2021/12/26 00:31:16;;;;;;;12.45;11.75;;;-6.10;99.90;;;;;;4981288;28;20039;-81
2021/12/26 00:33:44;;;;;;;12.90;12.15;;;-6.20;99.90;;;;;;4933210;29;20051;-82
2021/12/26 00:36:11;;;;;;;12.23;11.55;;;-6.10;99.90;;;;;;4935621;28;20047;-82
2021/12/26 00:38:38;;;;;;;12.55;11.85;;;-6.20;99.90;;;;;;4934206;29;20117;-81
2021/12/26 00:41:05;;;;;;;12.20;11.50;;;-6.10;99.90;;;;;;4966085;28;20047;-81
2021/12/26 00:43:32;;;;;;;12.40;11.80;;;-6.10;99.90;;;;;;4965182;28;20067;-81
2021/12/26 00:45:59;;;;;;;12.20;11.70;;;-6.00;99.90;;;;;;4963662;28;20059;-81
2021/12/26 00:48:27;;;;;;;13.27;12.57;;;-6.00;99.90;;;;;;4978588;28;20056;-82
2021/12/26 00:50:53;;;;;;;13.18;12.43;;;-6.00;99.90;;;;;;4932010;29;20122;-82
2021/12/26 00:53:20;;;;;;;12.98;12.30;;;-6.00;99.90;;;;;;4948761;28;20680;-82
2021/12/26 00:55:48;;;;;;;12.80;12.13;;;-5.90;99.90;;;;;;4947215;28;20051;-81
2021/12/26 00:58:14;;;;;;;13.40;12.70;;;-5.90;99.90;;;;;;4933016;29;20055;-82
2021/12/26 01:00:44;;;;;;;13.77;12.98;;;-5.90;99.90;;;;;;4947821;28;20051;-82
2021/12/26 01:03:13;;;;;;;12.60;11.93;;;-5.90;99.90;;;;;;4933441;29;20051;-82
2021/12/26 01:05:43;;;;;;;12.73;12.02;;;-5.80;99.90;;;;;;4953719;28;20655;-82
2021/12/26 01:08:14;;;;;;;13.35;12.65;;;-5.80;99.90;;;;;;4948215;28;20061;-82
2021/12/26 01:10:54;;;;;;;13.77;12.77;;;-5.90;99.90;;;;;;4948645;28;20603;-81
2021/12/26 01:13:31;;;;;;;13.63;12.57;;;-5.90;99.90;;;;;;4964720;28;20204;-82
2021/12/26 01:16:17;;;;;;;13.38;12.68;;;-5.90;99.90;;;;;;4935428;28;20073;-82
2021/12/26 01:18:52;;;;;;;13.10;12.25;;;-5.90;99.90;;;;;;4929201;29;20137;-82
2021/12/26 01:21:25;;;;;;;13.57;12.77;;;-5.90;99.90;;;;;;4948220;28;20055;-81
2021/12/26 01:24:14;;;;;;;13.70;12.90;;;-6.00;99.90;;;;;;4963829;28;20546;-82
2021/12/26 01:26:42;;;;;;;13.00;12.35;;;-5.90;99.90;;;;;;4946686;28;20730;-81
2021/12/26 01:29:15;;;;;;;15.00;13.75;;;-6.00;99.90;;;;;;4979719;28;20070;-81
2021/12/26 01:31:42;;;;;;;13.50;12.80;;;-6.00;99.90;;;;;;4947919;28;20110;-82
2021/12/26 01:34:45;;;;;;;12.75;12.13;;;-6.00;99.90;;;;;;4938791;29;20375;-81
2021/12/26 01:37:20;;;;;;;14.43;13.60;;;-6.00;99.90;;;;;;4958543;28;20051;-82
2021/12/26 01:40:07;;;;;;;13.57;12.82;;;-6.00;99.90;;;;;;4951175;28;20058;-82
2021/12/26 01:42:46;;;;;;;14.45;13.65;;;-6.00;99.90;;;;;;4963589;28;20070;-82
2021/12/26 01:45:19;;;;;;;13.43;12.63;;;-6.00;99.90;;;;;;4963254;28;20055;-82
2021/12/26 01:48:00;;;;;;;13.57;12.85;;;-6.00;99.90;;;;;;4941918;29;20043;-82
2021/12/26 01:50:30;;;;;;;12.98;12.27;;;-5.90;99.90;;;;;;4949962;28;20043;-81
2021/12/26 01:52:57;;;;;;;14.02;13.05;;;-5.90;99.90;;;;;;4933971;29;20051;-81
2021/12/26 01:55:37;;;;;;;13.05;12.07;;;-5.80;99.90;;;;;;4963208;28;20043;-82
2021/12/26 01:58:07;;;;;;;13.98;13.18;;;-5.80;99.90;;;;;;4980832;28;20078;-82
2021/12/26 02:00:35;;;;;;;12.82;12.15;;;-5.80;99.90;;;;;;4931756;28;20787;-81
2021/12/26 02:03:02;;;;;;;14.10;13.30;;;-5.70;99.90;;;;;;4963305;28;20043;-82
2021/12/26 02:05:29;;;;;;;14.10;13.18;;;-5.80;99.90;;;;;;4946135;28;20058;-81
2021/12/26 02:08:03;;;;;;;13.38;12.77;;;-5.80;99.90;;;;;;4957817;28;20102;-82
2021/12/26 02:10:30;;;;;;;13.52;12.85;;;-5.90;99.90;;;;;;4963534;28;20111;-82
2021/12/26 02:12:56;;;;;;;13.98;13.13;;;-5.90;99.90;;;;;;4963855;28;20039;-82
2021/12/26 02:15:23;;;;;;;13.30;12.63;;;-5.90;99.90;;;;;;4952915;28;20526;-82
2021/12/26 02:18:12;;;;;;;15.02;14.10;;;-6.00;99.90;;;;;;4931717;28;20049;-82
2021/12/26 02:24:00;;;;;;;14.63;13.82;;;-6.00;99.90;;;;;;4963521;28;20086;-81
2021/12/26 02:29:05;;;;;;;14.32;13.52;;;-6.10;99.90;;;;;;4949056;28;20050;-82
2021/12/26 02:31:33;;;;;;;14.50;13.63;;;-6.10;99.90;;;;;;4934815;28;20054;-82
2021/12/26 02:34:00;;;;;;;15.82;14.60;;;-6.10;99.90;;;;;;4967570;28;20062;-81
2021/12/26 02:36:27;;;;;;;13.32;12.73;;;-6.10;99.90;;;;;;4939896;28;20607;-82
2021/12/26 02:38:54;;;;;;;14.38;13.57;;;-6.00;99.90;;;;;;4983083;28;20043;-82
2021/12/26 02:41:21;;;;;;;15.55;14.30;;;-6.00;99.90;;;;;;4949966;28;20376;-82
2021/12/26 02:43:48;;;;;;;15.02;14.13;;;-6.10;99.90;;;;;;4966507;28;20078;-82
2021/12/26 02:46:15;;;;;;;14.68;13.88;;;-6.10;99.90;;;;;;4950246;28;20055;-82
2021/12/26 02:48:42;;;;;;;14.40;13.60;;;-6.10;99.90;;;;;;4963205;28;20050;-82
2021/12/26 02:51:10;;;;;;;15.07;14.18;;;-6.10;99.90;;;;;;4943860;28;20054;-82
2021/12/26 02:53:37;;;;;;;14.48;13.30;;;-6.10;99.90;;;;;;4951399;29;20126;-82
2021/12/26 02:56:05;;;;;;;15.60;14.43;;;-6.10;99.90;;;;;;4966204;28;20055;-82
2021/12/26 02:58:32;;;;;;;15.23;14.23;;;-6.10;99.90;;;;;;4950170;29;20106;-82
2021/12/26 03:01:11;;;;;;;14.65;13.75;;;-6.10;99.90;;;;;;4944817;29;20039;-82
2021/12/26 03:03:39;;;;;;;15.15;14.25;;;-6.10;99.90;;;;;;4950682;29;20051;-82
2021/12/26 03:06:17;;;;;;;14.30;13.30;;;-6.10;99.90;;;;;;4967501;28;20071;-82
2021/12/26 03:08:44;;;;;;;14.65;13.70;;;-6.20;99.90;;;;;;4970104;28;20110;-81
2021/12/26 03:11:10;;;;;;;15.68;14.35;;;-6.20;99.90;;;;;;4933914;28;20098;-82
2021/12/26 03:13:37;;;;;;;15.40;14.23;;;-6.20;99.90;;;;;;4965767;28;20459;-82
2021/12/26 03:16:04;;;;;;;14.15;13.32;;;-6.20;99.90;;;;;;4949362;28;20566;-82
2021/12/26 03:18:31;;;;;;;15.02;14.10;;;-6.20;99.90;;;;;;4972580;28;20095;-82
2021/12/26 03:20:57;;;;;;;16.02;15.02;;;-6.30;99.90;;;;;;4951347;28;20047;-81
2021/12/26 03:23:27;;;;;;;15.93;14.77;;;-6.40;99.90;;;;;;4968888;28;20057;-82
2021/12/26 03:25:59;;;;;;;15.35;14.35;;;-6.40;99.90;;;;;;4952546;28;20538;-82
2021/12/26 03:28:27;;;;;;;14.82;13.93;;;-6.30;99.90;;;;;;4985221;28;20055;-82
2021/12/26 03:30:55;;;;;;;15.00;14.10;;;-6.40;99.90;;;;;;4985091;28;20058;-81
2021/12/26 03:33:22;;;;;;;15.13;14.13;;;-6.40;99.90;;;;;;4952930;28;20121;-82
2021/12/26 03:35:50;;;;;;;15.70;14.50;;;-6.50;99.90;;;;;;4944712;28;20047;-82
2021/12/26 03:38:18;;;;;;;15.50;14.43;;;-6.50;99.90;;;;;;4953021;28;20044;-82
2021/12/26 03:40:46;;;;;;;15.65;14.30;;;-6.50;99.90;;;;;;4964657;28;20047;-82
2021/12/26 03:43:13;;;;;;;14.82;13.93;;;-6.50;99.90;;;;;;4966038;28;20114;-82
2021/12/26 03:45:56;;;;;;;15.95;14.88;;;-6.50;99.90;;;;;;4982995;23;20043;-82
2021/12/26 03:48:39;;;;;;;14.68;13.77;;;-6.40;99.90;;;;;;4949550;28;20250;-82
2021/12/26 03:51:12;;;;;;;14.10;13.32;;;-6.50;99.90;;;;;;4933243;29;20066;-82
2021/12/26 03:53:47;;;;;;;16.77;15.40;;;-6.40;99.90;;;;;;4949494;29;20051;-82
2021/12/26 03:56:29;;;;;;;15.73;14.55;;;-6.40;99.90;;;;;;4937881;29;20047;-82
2021/12/26 03:59:26;;;;;;;14.80;13.90;;;-6.30;99.90;;;;;;4948372;29;20039;-82
2021/12/26 04:08:40;;;;;;;13.68;12.88;;;-6.30;99.90;;;;;;4968275;28;20030;-82
2021/12/26 04:11:10;;;;;;;14.55;13.65;;;-6.30;99.90;;;;;;4940822;28;20118;-82
2021/12/26 04:13:44;;;;;;;15.50;14.52;;;-6.20;99.90;;;;;;4940971;29;20536;-82
2021/12/26 04:16:23;;;;;;;15.35;14.18;;;-6.30;99.90;;;;;;4926572;28;20086;-82
2021/12/26 04:18:54;;;;;;;15.10;14.15;;;-6.30;99.90;;;;;;4943790;29;20051;-82
2021/12/26 04:21:41;;;;;;;15.10;13.85;;;-6.30;99.90;;;;;;4950907;28;20039;-82
2021/12/26 04:24:12;;;;;;;15.23;14.27;;;-6.30;99.90;;;;;;4957551;28;20051;-83
2021/12/26 04:27:25;;;;;;;15.98;14.57;;;-6.30;99.90;;;;;;4944727;28;20046;-82
2021/12/26 04:30:29;;;;;;;17.40;15.98;;;-6.40;99.90;;;;;;4952797;28;20565;-82
2021/12/26 04:33:20;;;;;;;15.75;14.50;;;-6.30;99.90;;;;;;4954220;28;20046;-82
2021/12/26 04:35:48;;;;;;;15.30;14.10;;;-6.40;99.90;;;;;;4959688;28;20042;-82
2021/12/26 04:41:13;;;;;;;15.63;14.27;;;-6.30;99.90;;;;;;4943422;28;20059;-82
2021/12/26 04:44:11;;;;;;;16.13;14.63;;;-6.20;99.90;;;;;;4955695;28;20051;-82
2021/12/26 04:47:03;;;;;;;15.27;14.15;;;-6.20;99.90;;;;;;4974344;28;20039;-82
2021/12/26 04:49:30;;;;;;;15.35;14.05;;;-6.20;99.90;;;;;;4949230;29;20047;-81
2021/12/26 04:51:57;;;;;;;14.38;13.45;;;-6.10;99.90;;;;;;4948048;28;20075;-82
2021/12/26 04:54:28;;;;;;;13.18;12.40;;;-6.00;99.90;;;;;;4964879;28;20419;-82
2021/12/26 04:56:55;;;;;;;14.38;13.10;;;-6.00;99.90;;;;;;4948385;28;20683;-82
2021/12/26 04:59:22;;;;;;;14.98;13.55;;;-6.10;99.90;;;;;;4948740;29;20102;-82
2021/12/26 05:01:48;;;;;;;17.02;15.55;;;-6.00;99.90;;;;;;4943069;28;20047;-82
2021/12/26 05:04:15;;;;;;;16.95;15.65;;;-6.00;99.90;;;;;;4964977;28;20142;-82
2021/12/26 05:06:43;;;;;;;15.82;14.50;;;-6.00;99.90;;;;;;4949328;28;20093;-82
2021/12/26 05:09:10;;;;;;;17.65;15.65;;;-6.00;99.90;;;;;;4951988;28;20124;-82
2021/12/26 05:11:37;;;;;;;16.45;15.05;;;-6.10;99.90;;;;;;4967106;28;20067;-83
2021/12/26 05:14:04;;;;;;;16.90;15.60;;;-6.10;99.90;;;;;;4967882;28;20055;-82
2021/12/26 05:16:31;;;;;;;18.25;16.65;;;-6.10;99.90;;;;;;4930444;29;20051;-82
2021/12/26 05:18:59;;;;;;;16.95;15.55;;;-6.00;99.90;;;;;;4948438;28;20534;-81
2021/12/26 05:21:26;;;;;;;17.08;15.73;;;-6.00;99.90;;;;;;4948160;28;20050;-82
2021/12/26 05:23:52;;;;;;;17.80;16.30;;;-6.10;99.90;;;;;;4978683;28;20051;-82
2021/12/26 05:26:20;;;;;;;18.40;16.95;;;-6.10;99.90;;;;;;4958106;28;20137;-82
2021/12/26 05:28:47;;;;;;;17.38;15.73;;;-6.20;99.90;;;;;;4967466;28;20474;-82
2021/12/26 05:31:15;;;;;;;18.73;16.92;;;-6.10;99.90;;;;;;4973537;28;20051;-82
2021/12/26 05:33:42;;;;;;;17.52;16.25;;;-6.10;99.90;;;;;;4976103;28;20191;-82
2021/12/26 05:36:10;;;;;;;17.23;15.57;;;-6.10;99.90;;;;;;4940467;29;20130;-82
2021/12/26 05:38:39;;;;;;;18.27;16.77;;;-6.10;99.90;;;;;;4946612;28;20066;-82
2021/12/26 05:41:06;;;;;;;18.95;16.92;;;-6.10;99.90;;;;;;4955089;28;20047;-82
2021/12/26 05:43:38;;;;;;;18.20;16.63;;;-6.20;99.90;;;;;;4951469;28;20055;-82
2021/12/26 05:46:05;;;;;;;18.17;16.52;;;-6.10;99.90;;;;;;4950660;28;20130;-82
2021/12/26 05:48:32;;;;;;;18.58;16.90;;;-6.20;99.90;;;;;;4934819;28;20506;-82
2021/12/26 05:51:00;;;;;;;20.27;18.15;;;-6.10;99.90;;;;;;4934392;28;20161;-82
2021/12/26 05:53:59;;;;;;;18.95;17.02;;;-6.10;99.90;;;;;;4966374;28;20055;-82
2021/12/26 05:56:26;;;;;;;18.52;16.77;;;-6.20;99.90;;;;;;4981269;28;20064;-82
2021/12/26 05:58:56;;;;;;;18.50;16.85;;;-6.30;99.90;;;;;;4967077;28;20138;-82
2021/12/26 06:01:24;;;;;;;18.67;16.80;;;-6.20;99.90;;;;;;4965778;28;20050;-82
2021/12/26 06:03:51;;;;;;;16.58;15.02;;;-6.20;99.90;;;;;;4934991;28;20035;-82
2021/12/26 06:06:19;;;;;;;18.80;16.90;;;-6.20;99.90;;;;;;4967382;28;20042;-83
2021/12/26 06:08:47;;;;;;;22.17;16.45;;;-6.30;99.90;;;;;;4986615;28;20074;-82
2021/12/26 06:11:14;;;;;;;16.58;15.05;;;-6.30;99.90;;;;;;4966147;28;20039;-82
2021/12/26 06:13:44;;;;;;;18.42;16.73;;;-6.40;99.90;;;;;;4951535;28;20145;-82
2021/12/26 06:16:10;;;;;;;15.25;13.90;;;-6.30;99.90;;;;;;4949653;28;20062;-82
2021/12/26 06:18:38;;;;;;;17.60;15.98;;;-6.30;99.90;;;;;;4981946;28;20596;-82
2021/12/26 06:21:19;;;;;;;17.63;15.93;;;-6.40;99.90;;;;;;4951249;28;20492;-82
2021/12/26 06:23:50;;;;;;;18.70;16.75;;;-6.30;99.90;;;;;;4967351;28;20608;-82
2021/12/26 06:27:05;;;;;;;19.52;17.48;;;-6.30;99.90;;;;;;4992618;23;20054;-82
2021/12/26 06:30:38;;;;;;;17.60;15.80;;;-6.30;99.90;;;;;;4984895;28;20058;-80
2021/12/26 06:34:00;;;;;;;22.02;17.80;;;-6.30;99.90;;;;;;4994515;28;20624;-82
2021/12/26 06:37:04;;;;;;;19.58;15.70;;;-6.40;99.90;;;;;;4967980;28;20047;-82
2021/12/26 06:40:00;;;;;;;21.77;16.45;;;-6.30;99.90;;;;;;4979959;28;20082;-82
2021/12/26 06:43:20;;;;;;;17.67;15.23;;;-6.40;99.90;;;;;;4979197;28;20764;-82
2021/12/26 06:46:38;;;;;;;20.38;15.57;;;-6.20;99.90;;;;;;4960776;23;20104;-82
2021/12/26 06:49:30;;;;;;;17.27;15.27;;;-6.40;99.90;;;;;;4946741;28;20047;-82
2021/12/26 06:52:10;;;;;;;15.23;13.45;;;-6.40;99.90;;;;;;4955205;28;20050;-82
2021/12/26 06:54:38;;;;;;;18.85;13.73;;;-6.20;99.90;;;;;;4949709;28;20118;-82
2021/12/26 06:57:37;;;;;;;17.95;14.63;;;-6.10;99.90;;;;;;4969556;28;20534;-82
2021/12/26 07:00:30;;;;;;;24.42;17.33;;;-6.10;99.90;;;;;;4956312;28;20047;-82
2021/12/26 07:03:28;;;;;;;17.88;16.02;;;-5.90;99.90;;;;;;4941674;28;20047;-82
2021/12/26 07:05:59;;;;;;;23.45;17.30;;;-5.90;99.90;;;;;;4991558;28;20137;-83
2021/12/26 07:08:29;;;;;;;18.73;16.63;;;-5.90;99.90;;;;;;4984222;28;20183;-82
2021/12/26 07:10:57;;;;;;;18.73;15.57;;;-5.80;99.90;;;;;;4975508;28;20049;-82
2021/12/26 07:13:25;;;;;;;15.90;13.93;;;-5.70;99.90;;;;;;4986113;28;20263;-82
2021/12/26 07:15:52;;;;;;;26.13;18.38;;;-5.70;99.90;;;;;;4986878;28;20049;-82
2021/12/26 07:18:22;;;;;;;22.05;17.33;;;-5.60;99.90;;;;;;4984910;28;20137;-82
2021/12/26 07:20:49;;;;;;;19.85;15.63;;;-5.60;99.90;;;;;;4973404;28;20043;-82
2021/12/26 07:23:16;;;;;;;17.10;14.65;;;-5.50;99.90;;;;;;4989816;28;20054;-82
2021/12/26 07:25:51;;;;;;;20.40;15.30;;;-5.50;99.90;;;;;;4980198;28;20097;-82
2021/12/26 07:28:18;;;;;;;21.40;16.60;;;-5.40;99.90;;;;;;4974903;28;20341;-82
2021/12/26 07:31:11;;;;;;;18.77;15.63;;;-5.40;99.90;;;;;;4988147;28;20050;-82
2021/12/26 07:34:16;;;;;;;22.25;17.65;;;-5.30;99.90;;;;;;4990463;28;20065;-82
2021/12/26 07:36:44;;;;;;;16.33;14.25;;;-5.40;99.90;;;;;;4968109;28;20042;-82
2021/12/26 07:39:28;;;;;;;17.85;15.05;;;-5.30;99.90;;;;;;4997898;28;20128;-82
2021/12/26 07:41:55;;;;;;;18.58;16.35;;;-5.40;99.90;;;;;;4986369;28;20068;-82
2021/12/26 07:44:40;;;;;;;23.10;16.65;;;-5.30;99.90;;;;;;4985559;28;20555;-82
2021/12/26 07:47:27;;;;;;;16.77;14.80;;;-5.30;99.90;;;;;;4990154;28;20129;-82
2021/12/26 07:49:58;;;;;;;15.27;13.75;;;-5.30;99.90;;;;;;4988788;28;20358;-82
2021/12/26 07:52:45;;;;;;;23.38;17.77;;;-5.20;99.90;;;;;;4990944;28;20058;-82
2021/12/26 07:55:31;;;;;;;19.23;15.82;;;-5.20;99.90;;;;;;4986220;28;20192;-82
2021/12/26 07:58:17;;;;;;;23.25;16.90;;;-5.20;99.90;;;;;;4976389;28;20145;-82
2021/12/26 08:01:03;;;;;;;16.88;15.07;;;-5.20;99.90;;;;;;4979022;28;20202;-82
2021/12/26 08:03:47;;;;;;;17.15;13.20;;;-5.20;99.90;;;;;;4981117;28;20050;-83
2021/12/26 08:06:37;;;;;;;16.02;13.57;;;-5.20;99.90;;;;;;4967430;28;20046;-83
2021/12/26 08:09:06;;;;;;;25.10;17.00;;;-5.10;99.90;;;;;;4974867;28;20064;-83
2021/12/26 08:11:33;;;;;;;21.63;16.98;;;-5.20;99.90;;;;;;4973990;28;20592;-83
2021/12/26 08:14:00;;;;;;;24.80;16.10;;;-5.10;99.90;;;;;;4991987;28;20285;-83
2021/12/26 08:16:27;;;;;;;23.50;18.95;;;-5.10;99.90;;;;;;4990463;28;20326;-83
2021/12/26 08:18:55;;;;;;;22.52;16.88;;;-5.00;99.90;;;;;;4971294;28;20061;-83
2021/12/26 08:21:22;;;;;;;20.65;14.63;;;-5.00;99.90;;;;;;4955542;28;20043;-82
2021/12/26 08:23:48;;;;;;;25.77;18.08;;;-5.10;99.90;;;;;;4971197;28;20387;-82
2021/12/26 08:26:16;;;;;;;16.92;15.38;;;-5.10;99.90;;;;;;4970971;28;20043;-82
2021/12/26 08:28:43;;;;;;;20.15;17.90;;;-5.10;99.90;;;;;;4973025;28;20046;-82
2021/12/26 08:31:10;;;;;;;23.65;20.10;;;-5.10;99.90;;;;;;4990731;28;20062;-82
2021/12/26 08:33:37;;;;;;;23.50;17.35;;;-5.10;99.90;;;;;;4990292;28;20065;-83
2021/12/26 08:36:05;;;;;;;20.33;17.90;;;-4.90;99.90;;;;;;4972174;28;20081;-83
2021/12/26 08:38:32;;;;;;;21.17;17.80;;;-4.80;99.90;;;;;;4990727;28;20137;-82
2021/12/26 08:41:00;;;;;;;18.88;17.08;;;-4.90;99.90;;;;;;4990483;28;20229;-82
2021/12/26 08:43:29;;;;;;;19.65;17.65;;;-4.90;99.90;;;;;;4990481;28;20046;-83
2021/12/26 08:45:57;;;;;;;26.48;19.55;;;-4.80;99.90;;;;;;4989702;28;20050;-82
2021/12/26 08:48:24;;;;;;;22.27;19.38;;;-4.90;99.90;;;;;;4988882;28;20108;-82
2021/12/26 08:50:55;;;;;;;23.88;18.80;;;-4.80;99.90;;;;;;4970626;28;20105;-82
2021/12/26 08:53:27;;;;;;;27.08;20.38;;;-4.80;99.90;;;;;;4973636;28;20058;-82
2021/12/26 08:55:54;;;;;;;20.33;17.52;;;-4.70;99.90;;;;;;4984728;28;20532;-82
2021/12/26 08:58:21;;;;;;;24.15;18.50;;;-4.70;99.90;;;;;;4986979;28;20046;-82
2021/12/26 09:00:48;;;;;;;23.65;17.45;;;-4.70;99.90;;;;;;4987408;28;20038;-82
2021/12/26 09:03:15;;;;;;;23.65;18.02;;;-4.70;99.90;;;;;;4971437;28;20058;-82
2021/12/26 09:05:42;;;;;;;22.85;16.80;;;-4.60;99.90;;;;;;4977216;28;20204;-82
2021/12/26 09:08:10;;;;;;;17.60;15.00;;;-4.50;99.90;;;;;;4982564;28;20089;-82
2021/12/26 09:10:42;;;;;;;22.75;17.48;;;-4.50;99.90;;;;;;4987093;28;20061;-82
2021/12/26 09:13:10;;;;;;;25.13;18.77;;;-4.50;99.90;;;;;;4984163;28;20431;-82
2021/12/26 09:15:37;;;;;;;23.65;16.90;;;-4.50;99.90;;;;;;4966286;28;20510;-83
2021/12/26 09:18:04;;;;;;;20.02;16.55;;;-4.40;99.90;;;;;;4967600;28;20046;-83
2021/12/26 09:20:31;;;;;;;21.67;17.83;;;-4.30;99.90;;;;;;4971340;28;20092;-82
2021/12/26 09:22:58;;;;;;;20.50;18.27;;;-4.30;99.90;;;;;;4982997;28;20051;-82
2021/12/26 09:25:25;;;;;;;23.42;17.30;;;-4.20;99.90;;;;;;4951200;28;20050;-82
2021/12/26 09:27:52;;;;;;;21.23;18.15;;;-4.10;99.90;;;;;;4950627;28;20051;-82
2021/12/26 09:30:19;;;;;;;20.00;16.38;;;-4.20;99.90;;;;;;4966979;28;20153;-81
2021/12/26 09:32:46;;;;;;;19.92;16.25;;;-4.10;99.90;;;;;;4951576;28;20406;-82
2021/12/26 09:35:14;;;;;;;27.02;19.63;;;-4.00;99.90;;;;;;4962529;28;20688;-82
2021/12/26 09:37:41;;;;;;;28.33;21.75;;;-3.90;99.90;;;;;;4982444;28;20066;-82
2021/12/26 09:40:08;;;;;;;25.10;18.05;;;-3.80;99.90;;;;;;4980529;28;20074;-82
2021/12/26 09:42:37;;;;;;;24.75;19.38;;;-3.90;99.90;;;;;;4968071;28;20542;-82
2021/12/26 09:45:08;;;;;;;27.02;19.88;;;-3.90;99.90;;;;;;4983446;28;20086;-82
2021/12/26 09:47:37;;;;;;;30.25;19.63;;;-3.90;99.90;;;;;;4990012;28;20042;-82
2021/12/26 09:50:06;;;;;;;27.75;18.60;;;-3.80;99.90;;;;;;4986312;28;20121;-82
2021/12/26 09:52:33;;;;;;;21.73;16.77;;;-3.70;99.90;;;;;;4970179;28;20081;-83
2021/12/26 09:55:00;;;;;;;29.40;19.48;;;-3.70;99.90;;;;;;4970657;28;20129;-82
2021/12/26 09:57:29;;;;;;;20.80;18.15;;;-3.50;99.90;;;;;;4968848;28;20505;-82
2021/12/26 09:59:55;;;;;;;19.55;17.48;;;-3.40;99.90;;;;;;5002031;28;20403;-82
2021/12/26 10:02:22;;;;;;;22.88;17.35;;;-3.40;99.90;;;;;;4969194;28;20090;-82
2021/12/26 10:04:51;;;;;;;23.40;17.48;;;-3.50;99.90;;;;;;4986385;28;20048;-83
2021/12/26 10:07:23;;;;;;;27.00;19.60;;;-3.50;99.90;;;;;;4982286;28;20047;-82
2021/12/26 10:09:52;;;;;;;21.23;17.27;;;-3.60;99.90;;;;;;4966295;28;20426;-82
2021/12/26 10:12:21;;;;;;;22.17;16.83;;;-3.60;99.90;;;;;;4966426;28;20051;-82
2021/12/26 10:14:50;;;;;;;16.73;14.77;;;-3.50;99.90;;;;;;4965619;28;20490;-82
2021/12/26 10:17:24;;;;;;;18.45;15.05;;;-3.50;99.90;;;;;;4968652;28;20146;-82
2021/12/26 10:19:52;;;;;;;25.40;18.13;;;-3.60;99.90;;;;;;4966723;28;20051;-83
2021/12/26 10:22:28;;;;;;;25.10;17.00;;;-3.40;99.90;;;;;;4966505;28;20043;-82
2021/12/26 10:24:56;;;;;;;24.83;18.75;;;-3.30;99.90;;;;;;4986672;28;20082;-83
2021/12/26 10:27:31;;;;;;;21.60;16.40;;;-3.10;99.90;;;;;;4984256;28;20078;-83
2021/12/26 10:30:01;;;;;;;19.35;16.20;;;-3.10;99.90;;;;;;4962937;28;20050;-82
2021/12/26 10:32:32;;;;;;;28.80;21.80;;;-3.20;99.90;;;;;;4950926;28;20043;-82
2021/12/26 10:35:04;;;;;;;23.85;18.02;;;-3.10;99.90;;;;;;4969637;28;20134;-82
2021/12/26 10:37:35;;;;;;;;;;;-3.10;99.90;;;;;;4971590;28;20045;-83
2021/12/26 10:40:10;;;;;;;28.38;19.08;;;-3.00;99.90;;;;;;4970725;28;19921;-82
2021/12/26 10:42:59;;;;;;;24.60;18.23;;;-2.90;99.90;;;;;;4970888;28;20074;-82
2021/12/26 10:45:28;;;;;;;24.73;17.80;;;-2.90;99.90;;;;;;4987630;28;20046;-83
2021/12/26 10:48:03;;;;;;;22.00;16.98;;;-2.80;99.90;;;;;;4985275;28;20046;-83
2021/12/26 10:50:34;;;;;;;22.35;16.98;;;-2.80;99.90;;;;;;4988135;28;20039;-83
2021/12/26 10:53:07;;;;;;;23.98;18.20;;;-2.80;99.90;;;;;;4989637;28;20054;-81
2021/12/26 10:55:40;;;;;;;21.85;19.23;;;-2.80;99.90;;;;;;4972889;28;20537;-82
2021/12/26 10:58:12;;;;;;;21.92;17.80;;;-2.80;99.90;;;;;;4989586;28;20054;-83
2021/12/26 11:00:44;;;;;;;28.25;20.92;;;-2.70;99.90;;;;;;4988362;28;20100;-82
2021/12/26 11:03:21;;;;;;;26.02;17.70;;;-2.70;99.90;;;;;;4989634;28;20054;-83
2021/12/26 11:05:50;;;;;;;27.23;18.58;;;-2.60;99.90;;;;;;4989118;28;20047;-83
2021/12/26 11:08:29;;;;;;;18.95;16.98;;;-2.60;99.90;;;;;;5003798;28;20058;-82
2021/12/26 11:10:58;;;;;;;23.40;17.90;;;-2.60;99.90;;;;;;4988997;28;20133;-82
2021/12/26 11:13:31;;;;;;;23.10;17.27;;;-2.70;99.90;;;;;;4989142;28;20074;-82
2021/12/26 11:16:06;;;;;;;24.52;18.55;;;-2.70;99.90;;;;;;4989214;28;20121;-83
2021/12/26 11:18:36;;;;;;;28.80;18.98;;;-2.80;99.90;;;;;;4987487;28;20075;-82
2021/12/26 11:21:13;;;;;;;29.38;19.63;;;-2.70;99.90;;;;;;4987429;28;20047;-82
2021/12/26 11:23:42;;;;;;;26.23;19.35;;;-2.60;99.90;;;;;;4990958;28;20046;-82
2021/12/26 11:26:13;;;;;;;26.25;19.27;;;-2.60;99.90;;;;;;4972993;28;20050;-82
2021/12/26 11:28:44;;;;;;;31.48;19.70;;;-2.60;99.90;;;;;;4988687;28;20391;-81
2021/12/26 11:31:14;;;;;;;24.73;17.80;;;-2.50;99.90;;;;;;4972353;28;20554;-83
2021/12/26 11:33:41;;;;;;;23.08;17.73;;;-2.60;99.90;;;;;;4988648;28;20149;-82
2021/12/26 11:36:11;;;;;;;22.70;16.05;;;-2.50;99.90;;;;;;4977151;28;20050;-83
2021/12/26 11:38:39;;;;;;;22.85;15.27;;;-2.60;99.90;;;;;;5004947;28;20120;-82
2021/12/26 11:41:53;;;;;;;27.77;17.33;;;-2.60;99.90;;;;;;5001258;28;20058;-83
2021/12/26 11:45:19;;;;;;;26.52;16.85;;;-2.60;99.90;;;;;;4988374;28;20065;-82
2021/12/26 11:49:12;;;;;;;24.20;16.75;;;-2.60;99.90;;;;;;4965829;28;20068;-82
2021/12/26 11:52:28;;;;;;;19.00;15.20;;;-2.40;99.90;;;;;;4932490;29;20063;-82
2021/12/26 11:55:41;;;;;;;28.58;21.38;;;-2.50;99.90;;;;;;4912756;29;20156;-82
2021/12/26 11:58:38;;;;;;;29.23;18.48;;;-2.30;99.90;;;;;;4988264;28;20245;-82
2021/12/26 12:01:07;;;;;;;30.08;20.08;;;-2.40;99.90;;;;;;4962058;28;20054;-82
2021/12/26 12:03:34;;;;;;;24.25;18.42;;;-2.20;99.90;;;;;;4954394;28;20156;-82
2021/12/26 12:06:01;;;;;;;33.85;20.63;;;-2.20;99.90;;;;;;4952844;28;20184;-82
2021/12/26 12:08:31;;;;;;;28.52;19.15;;;-2.10;99.90;;;;;;4970547;28;20053;-82
2021/12/26 12:11:02;;;;;;;25.65;18.58;;;-2.00;99.90;;;;;;4988110;28;20046;-81
2021/12/26 12:13:51;;;;;;;45.15;26.38;;;-2.10;99.90;;;;;;4972486;28;20133;-82
2021/12/26 12:16:23;;;;;;;22.30;17.55;;;-2.20;99.90;;;;;;4969972;28;20109;-82
2021/12/26 12:18:54;;;;;;;32.75;22.73;;;-2.40;99.90;;;;;;4987975;28;20058;-82
2021/12/26 12:21:44;;;;;;;33.58;20.58;;;-2.40;99.90;;;;;;4994706;23;20057;-70
2021/12/26 12:24:14;;;;;;;20.70;16.55;;;-2.40;99.90;;;;;;4971984;28;20243;-70
2021/12/26 12:26:46;;;;;;;22.52;17.95;;;-2.50;99.90;;;;;;4972211;28;20058;-69
2021/12/26 12:29:25;;;;;;;28.98;18.98;;;-2.60;99.90;;;;;;4974847;28;20524;-70
2021/12/26 12:32:06;;;;;;;26.15;16.48;;;-2.50;99.90;;;;;;4973041;28;20206;-70
2021/12/26 12:35:02;;;;;;;25.05;16.52;;;-2.60;99.90;;;;;;4954315;28;20362;-71
2021/12/26 12:37:48;;;;;;;29.50;17.02;;;-2.60;99.90;;;;;;4970416;28;20050;-70
2021/12/26 12:40:29;;;;;;;28.17;16.83;;;-2.60;99.90;;;;;;4972066;28;20069;-70
2021/12/26 12:43:11;;;;;;;33.90;19.63;;;-2.50;99.90;;;;;;4954558;28;20156;-71
2021/12/26 12:45:58;;;;;;;21.63;14.50;;;-2.60;99.90;;;;;;4954407;28;20046;-70
2021/12/26 12:48:28;;;;;;;33.80;19.67;;;-2.70;99.90;;;;;;4969875;28;20493;-71
2021/12/26 12:51:03;;;;;;;26.45;16.73;;;-2.70;99.90;;;;;;4998484;28;20045;-70
2021/12/26 12:53:49;;;;;;;26.38;16.60;;;-2.70;99.90;;;;;;4993841;28;20050;-70
2021/12/26 12:56:33;;;;;;;30.38;19.52;;;-2.60;99.90;;;;;;4976724;28;20136;-71
2021/12/26 12:59:12;;;;;;;35.58;22.02;;;-2.60;99.90;;;;;;4973673;28;20054;-71
2021/12/26 13:01:49;;;;;;;32.42;19.60;;;-2.60;99.90;;;;;;4990189;28;20046;-71
2021/12/26 13:04:20;;;;;;;34.10;22.70;;;-2.60;99.90;;;;;;4972537;28;20255;-71
2021/12/26 13:06:56;;;;;;;31.77;20.30;;;-2.40;99.90;;;;;;4954518;28;20540;-70
2021/12/26 13:09:24;;;;;;;36.15;23.27;;;-2.40;99.90;;;;;;4954885;28;20484;-71
2021/12/26 13:11:57;;;;;;;29.85;18.90;;;-2.40;99.90;;;;;;4954626;28;20110;-70
2021/12/26 13:15:00;;;;;;;34.20;23.73;;;-2.30;99.90;;;;;;4954515;28;20105;-70
2021/12/26 13:17:35;;;;;;;27.15;17.63;;;-2.20;99.90;;;;;;4977114;28;20375;-70
2021/12/26 13:20:12;;;;;;;35.10;20.25;;;-2.30;99.90;;;;;;4968611;28;20315;-69